createdAt,value
2022-09-27T00:04:14.392Z,0.20
2022-09-27T00:09:36.314Z,0.17
2022-09-27T00:14:57.943Z,0.40
2022-09-27T00:20:21.965Z,0.20
2022-09-27T00:25:43.595Z,0.30
2022-09-27T00:31:05.573Z,0.25
2022-09-27T00:36:28.631Z,0.20
2022-09-27T00:41:50.840Z,0.28
2022-09-27T00:47:35.926Z,0.25
2022-09-27T00:53:10.606Z,0.20
2022-09-27T00:58:37.430Z,0.30
2022-09-27T01:04:08.165Z,0.30
2022-09-27T01:09:30.329Z,0.22
2022-09-27T01:14:54.734Z,0.40
2022-09-27T01:20:41.266Z,0.13
2022-09-27T01:26:50.964Z,0.20
2022-09-27T01:32:23.997Z,0.20
2022-09-27T01:37:55.333Z,0.20
2022-09-27T01:43:23.202Z,0.20
2022-09-27T01:48:48.955Z,0.20
2022-09-27T01:54:14.923Z,0.10
2022-09-27T01:59:50.690Z,0.10
2022-09-27T02:05:14.417Z,0.13
2022-09-27T02:10:43.842Z,0.10
2022-09-27T02:16:28.967Z,0.20
2022-09-27T02:22:06.976Z,0.10
2022-09-27T02:27:34.397Z,0.10
2022-09-27T02:32:56.113Z,0.20
2022-09-27T02:38:18.183Z,0.17
2022-09-27T02:43:40.084Z,0.00
2022-09-27T02:49:38.972Z,0.10
2022-09-27T02:55:00.643Z,0.05
2022-09-27T03:00:27.871Z,0.00
2022-09-27T03:05:59.009Z,0.00
2022-09-27T03:11:20.626Z,0.08
2022-09-27T03:16:42.459Z,0.15
2022-09-27T03:22:04.259Z,0.10
2022-09-27T03:27:25.897Z,0.00
2022-09-27T03:32:47.568Z,0.05
2022-09-27T03:38:10.930Z,0.08
2022-09-27T03:43:32.609Z,0.10
2022-09-27T03:48:54.524Z,0.10
2022-09-27T03:54:16.282Z,0.15
2022-09-27T03:59:37.919Z,0.13
2022-09-27T04:04:59.639Z,0.10
2022-09-27T04:10:21.828Z,0.00
2022-09-27T04:15:43.569Z,0.00
2022-09-27T04:21:05.424Z,0.10
2022-09-27T04:26:27.158Z,0.20
2022-09-27T04:31:48.801Z,0.13
2022-09-27T04:37:11.627Z,0.08
2022-09-27T04:42:34.203Z,0.10
2022-09-27T04:47:56.039Z,0.10
2022-09-27T04:53:17.686Z,0.00
2022-09-27T04:58:39.855Z,0.00
2022-09-27T05:04:01.680Z,0.08
2022-09-27T05:09:23.371Z,0.10
2022-09-27T05:14:45.262Z,0.10
2022-09-27T05:20:07.224Z,0.10
2022-09-27T05:25:28.901Z,0.10
2022-09-27T05:30:50.728Z,0.10
2022-09-27T05:36:12.831Z,0.08
2022-09-27T05:41:34.599Z,0.15
2022-09-27T05:46:56.314Z,0.10
2022-09-27T05:52:20.194Z,0.00
2022-09-27T05:57:43.178Z,0.10
2022-09-27T06:03:06.453Z,0.40
2022-09-27T06:08:28.138Z,0.22
2022-09-27T06:13:49.831Z,0.20
2022-09-27T06:19:11.909Z,0.10
2022-09-27T06:24:33.527Z,0.10
2022-09-27T06:29:56.121Z,0.10
2022-09-27T06:35:17.765Z,0.10
2022-09-27T06:40:40.182Z,0.30
2022-09-27T06:46:06.020Z,0.73
2022-09-27T06:51:27.789Z,0.43
2022-09-27T06:56:49.373Z,0.40
2022-09-27T07:02:11.160Z,0.68
2022-09-27T07:07:32.901Z,0.38
2022-09-27T07:12:55.855Z,0.90
2022-09-27T07:18:17.596Z,0.30
2022-09-27T07:23:39.576Z,0.50
2022-09-27T07:29:01.720Z,0.20
2022-09-27T07:34:23.349Z,0.45
2022-09-27T07:39:45.275Z,0.40
2022-09-27T07:45:09.256Z,0.30
2022-09-27T07:50:31.111Z,0.60
2022-09-27T07:55:53.813Z,0.50
2022-09-27T08:01:15.596Z,0.35
2022-09-27T08:06:37.296Z,0.65
2022-09-27T08:11:59.010Z,0.77
2022-09-27T08:17:20.649Z,0.50
2022-09-27T08:22:46.085Z,0.60
2022-09-27T08:28:07.716Z,0.40
2022-09-27T08:33:32.897Z,0.50
2022-09-27T08:38:59.214Z,0.68
2022-09-27T08:44:36.677Z,0.97
2022-09-27T08:50:17.197Z,0.77
2022-09-27T08:55:42.977Z,0.85
2022-09-27T09:01:12.379Z,0.68
2022-09-27T09:07:01.549Z,0.60
2022-09-27T09:12:49.354Z,0.90
2022-09-27T09:18:17.049Z,0.50
2022-09-27T09:23:54.558Z,0.80
2022-09-27T09:29:28.382Z,0.88
2022-09-27T09:34:58.323Z,0.75
2022-09-27T09:40:29.226Z,0.50
2022-09-27T09:45:58.098Z,0.50
2022-09-27T09:51:30.268Z,0.50
2022-09-27T09:57:06.004Z,0.60
2022-09-27T10:02:33.091Z,0.80
2022-09-27T10:07:59.457Z,0.70
2022-09-27T10:13:22.788Z,0.80
2022-09-27T10:18:50.134Z,0.70
2022-09-27T10:24:18.864Z,0.77
2022-09-27T10:29:40.702Z,0.98
2022-09-27T10:35:32.190Z,0.65
2022-09-27T10:40:56.220Z,0.90
2022-09-27T10:46:34.412Z,0.60
2022-09-27T10:52:08.874Z,0.80
2022-09-27T10:57:31.835Z,0.63
2022-09-27T11:02:57.799Z,1.00
2022-09-27T11:08:19.424Z,0.80
2022-09-27T11:13:42.053Z,0.70
2022-09-27T11:19:21.410Z,1.10
2022-09-27T11:25:04.738Z,1.20
2022-09-27T11:30:35.971Z,1.35
2022-09-27T11:36:05.022Z,1.20
2022-09-27T11:41:51.572Z,0.85
2022-09-27T11:47:20.669Z,1.52
2022-09-27T11:53:24.692Z,1.13
2022-09-27T11:59:24.942Z,1.58
2022-09-27T12:04:58.981Z,1.58
2022-09-27T12:10:21.901Z,1.75
2022-09-27T12:15:47.751Z,1.30
2022-09-27T12:21:11.207Z,1.65
2022-09-27T12:26:44.898Z,1.33
2022-09-27T12:32:19.449Z,1.25
2022-09-27T12:37:48.697Z,0.77
2022-09-27T12:43:19.624Z,1.00
2022-09-27T12:49:05.034Z,1.00
2022-09-27T12:54:53.870Z,0.70
2022-09-27T13:00:21.433Z,0.90
2022-09-27T13:05:59.828Z,1.42
2022-09-27T13:11:39.955Z,1.95
2022-09-27T13:17:01.927Z,1.77
2022-09-27T13:22:37.566Z,1.15
2022-09-27T13:27:59.178Z,1.13
2022-09-27T13:33:43.333Z,1.35
2022-09-27T13:39:06.790Z,1.15
2022-09-27T13:44:49.164Z,2.35
2022-09-27T13:50:18.407Z,0.60
2022-09-27T13:55:51.546Z,1.00
2022-09-27T14:01:13.228Z,1.05
2022-09-27T14:06:42.189Z,0.68
2022-09-27T14:12:12.331Z,0.60
2022-09-27T14:17:34.320Z,0.65
2022-09-27T14:22:56.014Z,0.60
2022-09-27T14:28:26.562Z,0.57
2022-09-27T14:33:48.684Z,0.70
2022-09-27T14:39:16.147Z,0.65
2022-09-27T14:44:43.967Z,0.50
2022-09-27T14:50:20.328Z,0.73
2022-09-27T14:55:45.598Z,0.70
2022-09-27T15:01:07.322Z,0.50
2022-09-27T15:06:29.153Z,0.70
2022-09-27T15:11:57.270Z,1.30
2022-09-27T15:17:21.601Z,4.45
2022-09-27T15:22:47.569Z,3.92
2022-09-27T15:28:12.204Z,4.60
2022-09-27T15:33:36.836Z,4.40
2022-09-27T15:39:10.417Z,3.60
2022-09-27T15:44:50.177Z,5.10
2022-09-27T15:50:20.555Z,3.40
2022-09-27T15:55:44.160Z,3.42
2022-09-27T16:01:06.412Z,3.45
2022-09-27T16:06:29.179Z,3.35
2022-09-27T16:11:51.200Z,2.92
2022-09-27T16:17:13.068Z,3.17
2022-09-27T16:22:34.818Z,2.72
2022-09-27T16:28:01.042Z,2.50
2022-09-27T16:33:22.772Z,2.08
2022-09-27T16:38:44.449Z,2.05
2022-09-27T16:44:13.944Z,1.90
2022-09-27T16:49:54.419Z,2.15
2022-09-27T16:55:24.252Z,1.90
2022-09-27T17:00:45.956Z,1.52
2022-09-27T17:06:07.758Z,1.38
2022-09-27T17:11:29.970Z,1.30
2022-09-27T17:16:52.757Z,1.48
2022-09-27T17:22:14.514Z,1.35
2022-09-27T17:27:36.160Z,1.17
2022-09-27T17:32:58.290Z,1.33
2022-09-27T17:38:20.600Z,1.10
2022-09-27T17:43:49.721Z,1.45
2022-09-27T17:49:31.182Z,1.33
2022-09-27T17:54:57.651Z,1.02
2022-09-27T18:00:20.568Z,1.10
2022-09-27T18:05:42.516Z,1.00
2022-09-27T18:11:06.161Z,0.90
2022-09-27T18:16:35.114Z,0.80
2022-09-27T18:21:57.026Z,1.35
2022-09-27T18:27:20.213Z,1.42
2022-09-27T18:32:41.851Z,1.30
2022-09-27T18:38:03.551Z,1.10
2022-09-27T18:43:25.975Z,1.00
2022-09-27T18:48:47.650Z,0.90
2022-09-27T18:54:20.392Z,0.70
2022-09-27T18:59:42.072Z,0.90
2022-09-27T19:05:04.002Z,1.52
2022-09-27T19:10:25.818Z,0.80
2022-09-27T19:15:57.949Z,0.82
2022-09-27T19:21:22.747Z,0.70
2022-09-27T19:26:44.543Z,0.80
2022-09-27T19:32:06.628Z,0.82
2022-09-27T19:37:28.245Z,0.80
2022-09-27T19:42:53.698Z,1.07
2022-09-27T19:48:15.423Z,0.90
2022-09-27T19:53:37.051Z,0.90
2022-09-27T19:58:58.697Z,0.85
2022-09-27T20:04:23.698Z,0.93
2022-09-27T20:09:48.184Z,0.65
2022-09-27T20:15:09.981Z,1.23
2022-09-27T20:20:31.601Z,0.90
2022-09-27T20:25:53.191Z,1.02
2022-09-27T20:31:17.917Z,1.00
2022-09-27T20:36:45.255Z,1.60
2022-09-27T20:42:06.960Z,1.30
2022-09-27T20:47:28.647Z,0.80
2022-09-27T20:52:50.603Z,0.75
2022-09-27T20:58:12.229Z,1.10
2022-09-27T21:03:34.652Z,0.73
2022-09-27T21:08:56.408Z,1.08
2022-09-27T21:14:18.204Z,0.70
2022-09-27T21:19:39.957Z,0.70
2022-09-27T21:25:01.698Z,0.60
2022-09-27T21:30:24.337Z,0.73
2022-09-27T21:35:50.092Z,0.40
2022-09-27T21:41:16.859Z,0.90
2022-09-27T21:46:40.954Z,0.40
2022-09-27T21:52:02.750Z,0.40
2022-09-27T21:57:24.354Z,0.50
2022-09-27T22:02:46.065Z,0.40
2022-09-27T22:08:07.795Z,0.65
2022-09-27T22:13:29.671Z,0.28
2022-09-27T22:18:53.277Z,0.22
2022-09-27T22:24:17.411Z,0.57
2022-09-27T22:29:39.040Z,0.30
2022-09-27T22:35:00.688Z,0.30
2022-09-27T22:40:22.361Z,0.30
2022-09-27T22:45:44.069Z,0.35
2022-09-27T22:51:07.940Z,0.20
2022-09-27T22:56:29.592Z,0.20
2022-09-27T23:01:51.322Z,0.30
2022-09-27T23:07:13.462Z,0.20
2022-09-27T23:12:35.218Z,0.20
2022-09-27T23:17:56.874Z,0.20
2022-09-27T23:23:18.506Z,0.45
2022-09-27T23:28:40.821Z,0.10
2022-09-27T23:34:04.660Z,0.40
2022-09-27T23:39:26.473Z,0.28
2022-09-27T23:44:48.113Z,0.30
2022-09-27T23:50:09.960Z,0.20
2022-09-27T23:55:31.575Z,0.20
